Time;durP1;ratioP1;P1;durP2;ratioP2;P2;SDS_P1;SDS_P2;PMS_P1;PMS_P2;Temp;Humidity;BMP_temperature;BMP_pressure;BME280_temperature;BME280_humidity;BME280_pressure;Samples;Min_cycle;Max_cycle;Signal;HPM_P1;HPM_P2
2024/01/27 00:00:33;;;;;;;15.07;6.55;;;;;;;;;;5026458;28;20123;-90
2024/01/27 00:03:00;;;;;;;9.10;3.20;;;;;;;;;;5032866;28;20493;-90
2024/01/27 00:05:28;;;;;;;7.80;2.63;;;;;;;;;;5032848;28;20131;-89
2024/01/27 00:07:58;;;;;;;13.05;4.47;;;;;;;;;;5033200;28;20398;-90
2024/01/27 00:10:25;;;;;;;13.02;4.38;;;;;;;;;;5033184;28;20481;-90
2024/01/27 00:12:52;;;;;;;28.70;11.52;;;;;;;;;;5032993;28;20049;-90
2024/01/27 00:15:20;;;;;;;12.20;5.47;;;;;;;;;;5031377;28;20060;-90
2024/01/27 00:17:47;;;;;;;10.98;5.78;;;;;;;;;;5032910;28;20057;-89
2024/01/27 00:20:14;;;;;;;8.65;1.83;;;;;;;;;;5033013;28;20057;-89
2024/01/27 00:22:42;;;;;;;7.40;1.30;;;;;;;;;;5033026;28;20104;-89
2024/01/27 00:25:09;;;;;;;11.40;3.13;;;;;;;;;;5033053;28;20055;-88
2024/01/27 00:27:36;;;;;;;7.90;1.77;;;;;;;;;;5033125;28;20095;-90
2024/01/27 00:30:04;;;;;;;4.90;1.20;;;;;;;;;;5032467;28;20049;-90
2024/01/27 00:32:33;;;;;;;5.43;1.65;;;;;;;;;;5032853;28;20057;-89
2024/01/27 00:35:01;;;;;;;6.13;1.70;;;;;;;;;;5032919;28;20049;-90
2024/01/27 00:37:28;;;;;;;6.30;2.47;;;;;;;;;;5032640;28;20053;-90
2024/01/27 00:39:56;;;;;;;11.30;2.95;;;;;;;;;;5033324;28;20049;-89
2024/01/27 00:42:23;;;;;;;8.85;1.63;;;;;;;;;;5033190;28;20051;-89
2024/01/27 00:44:52;;;;;;;6.95;2.10;;;;;;;;;;5032453;28;20079;-89
2024/01/27 00:47:19;;;;;;;6.13;1.77;;;;;;;;;;5032471;28;20489;-90
2024/01/27 00:49:47;;;;;;;9.27;2.33;;;;;;;;;;5031577;28;20045;-90
2024/01/27 00:52:14;;;;;;;11.93;3.95;;;;;;;;;;5032376;28;20050;-90
2024/01/27 00:54:42;;;;;;;8.73;3.45;;;;;;;;;;5033516;28;20126;-89
2024/01/27 00:57:09;;;;;;;8.63;3.67;;;;;;;;;;5031887;28;20557;-89
2024/01/27 00:59:37;;;;;;;10.52;2.20;;;;;;;;;;5034321;28;20107;-89
2024/01/27 01:02:05;;;;;;;8.77;2.53;;;;;;;;;;5033188;28;20045;-89
2024/01/27 01:04:32;;;;;;;3.38;1.98;;;;;;;;;;5032151;28;20049;-89
2024/01/27 01:06:59;;;;;;;11.25;3.42;;;;;;;;;;5032116;28;20049;-89
2024/01/27 01:09:27;;;;;;;9.88;3.50;;;;;;;;;;5034283;28;20060;-89
2024/01/27 01:11:54;;;;;;;7.00;2.83;;;;;;;;;;5050832;28;20045;-89
2024/01/27 01:14:21;;;;;;;8.23;1.60;;;;;;;;;;5034063;28;20050;-89
2024/01/27 01:16:49;;;;;;;3.30;2.17;;;;;;;;;;5032905;28;20049;-89
2024/01/27 01:19:16;;;;;;;12.30;2.25;;;;;;;;;;5033070;28;20115;-89
2024/01/27 01:21:43;;;;;;;8.02;1.60;;;;;;;;;;5032458;28;20049;-89
2024/01/27 01:24:11;;;;;;;6.20;1.65;;;;;;;;;;5032138;28;20099;-89
2024/01/27 01:26:39;;;;;;;3.88;1.80;;;;;;;;;;5031966;28;20053;-90
2024/01/27 01:29:06;;;;;;;6.68;1.70;;;;;;;;;;5031919;28;20050;-90
2024/01/27 01:31:33;;;;;;;5.10;1.40;;;;;;;;;;5032367;28;20049;-90
2024/01/27 01:34:00;;;;;;;6.10;1.33;;;;;;;;;;5032724;28;20539;-89
2024/01/27 01:36:28;;;;;;;7.20;1.40;;;;;;;;;;5031641;28;20463;-90
2024/01/27 01:38:55;;;;;;;9.18;1.77;;;;;;;;;;5031917;28;20049;-90
2024/01/27 01:41:22;;;;;;;7.22;1.90;;;;;;;;;;5031822;28;20053;-88
2024/01/27 01:43:50;;;;;;;6.47;2.25;;;;;;;;;;5033288;28;20099;-90
2024/01/27 01:46:17;;;;;;;4.38;1.80;;;;;;;;;;5032079;28;20042;-90
2024/01/27 01:48:45;;;;;;;12.10;1.98;;;;;;;;;;5033185;28;20046;-88
2024/01/27 01:51:13;;;;;;;4.55;1.67;;;;;;;;;;5032522;28;20128;-89
2024/01/27 01:53:40;;;;;;;7.63;1.80;;;;;;;;;;5031359;28;20084;-89
2024/01/27 01:56:08;;;;;;;5.35;1.52;;;;;;;;;;5031533;28;20041;-89
2024/01/27 01:58:35;;;;;;;7.00;1.73;;;;;;;;;;5031789;28;20059;-90
2024/01/27 02:01:03;;;;;;;8.48;2.08;;;;;;;;;;5032130;28;20077;-89
2024/01/27 02:03:30;;;;;;;12.00;2.65;;;;;;;;;;5035868;28;20108;-90
2024/01/27 02:05:57;;;;;;;8.27;2.25;;;;;;;;;;5036248;28;20073;-89
2024/01/27 02:08:25;;;;;;;7.40;2.47;;;;;;;;;;5034490;28;20133;-89
2024/01/27 02:10:52;;;;;;;13.18;3.95;;;;;;;;;;5035476;28;20103;-90
2024/01/27 02:13:21;;;;;;;16.30;3.60;;;;;;;;;;5036167;28;20116;-90
2024/01/27 02:15:49;;;;;;;6.85;2.22;;;;;;;;;;5035126;28;20053;-89
2024/01/27 02:18:16;;;;;;;8.15;2.30;;;;;;;;;;5035957;28;20049;-90
2024/01/27 02:20:44;;;;;;;11.38;2.33;;;;;;;;;;5035033;28;20398;-90
2024/01/27 02:23:11;;;;;;;10.00;2.78;;;;;;;;;;5036608;28;20140;-90
2024/01/27 02:25:39;;;;;;;14.23;2.83;;;;;;;;;;5054682;28;20040;-90
2024/01/27 02:28:06;;;;;;;8.10;2.05;;;;;;;;;;5041536;28;20046;-90
2024/01/27 02:30:33;;;;;;;7.18;2.10;;;;;;;;;;5035456;28;20449;-90
2024/01/27 02:33:01;;;;;;;7.97;2.40;;;;;;;;;;5035048;28;20045;-90
2024/01/27 02:35:28;;;;;;;8.93;1.67;;;;;;;;;;5034983;28;20060;-90
2024/01/27 02:37:56;;;;;;;13.60;2.15;;;;;;;;;;5035047;28;20081;-90
2024/01/27 02:40:23;;;;;;;8.43;2.03;;;;;;;;;;5036034;28;20057;-90
2024/01/27 02:42:50;;;;;;;6.10;2.00;;;;;;;;;;5035061;28;20387;-91
2024/01/27 02:45:18;;;;;;;11.77;2.22;;;;;;;;;;5034966;28;20119;-91
2024/01/27 02:47:45;;;;;;;8.85;2.28;;;;;;;;;;5034456;28;20059;-90
2024/01/27 02:50:13;;;;;;;8.02;2.13;;;;;;;;;;5035836;28;20068;-91
2024/01/27 02:52:40;;;;;;;5.38;2.33;;;;;;;;;;5034785;28;20053;-91
2024/01/27 02:55:08;;;;;;;3.42;2.10;;;;;;;;;;5034429;28;20061;-91
2024/01/27 02:57:35;;;;;;;9.02;2.50;;;;;;;;;;5034755;28;20061;-91
2024/01/27 03:00:04;;;;;;;7.38;1.90;;;;;;;;;;5034482;28;20058;-91
2024/01/27 03:02:32;;;;;;;6.32;1.80;;;;;;;;;;5026323;28;20049;-91
2024/01/27 03:05:00;;;;;;;14.77;3.50;;;;;;;;;;5034341;28;20118;-91
2024/01/27 03:07:28;;;;;;;10.70;1.92;;;;;;;;;;5034480;28;20401;-91
2024/01/27 03:09:55;;;;;;;4.57;1.75;;;;;;;;;;5034372;28;20107;-91
2024/01/27 03:12:23;;;;;;;8.05;1.80;;;;;;;;;;5034142;28;20108;-91
2024/01/27 03:14:51;;;;;;;8.32;2.20;;;;;;;;;;5034682;28;20099;-91
2024/01/27 03:17:19;;;;;;;6.60;2.25;;;;;;;;;;5033909;28;20486;-90
2024/01/27 03:19:46;;;;;;;8.93;2.55;;;;;;;;;;5034331;28;20049;-91
2024/01/27 03:22:16;;;;;;;6.03;2.28;;;;;;;;;;5033932;28;20052;-90
2024/01/27 03:24:43;;;;;;;8.43;2.95;;;;;;;;;;5033968;28;20053;-91
2024/01/27 03:27:10;;;;;;;8.20;3.28;;;;;;;;;;5030597;28;20050;-90
2024/01/27 03:29:38;;;;;;;5.65;2.50;;;;;;;;;;5035117;28;20056;-90
2024/01/27 03:32:05;;;;;;;8.10;2.25;;;;;;;;;;5033788;28;20049;-90
2024/01/27 03:34:32;;;;;;;7.28;2.45;;;;;;;;;;5025495;28;20064;-90
2024/01/27 03:37:00;;;;;;;11.77;2.63;;;;;;;;;;5034394;28;20132;-90
2024/01/27 03:39:27;;;;;;;7.18;2.08;;;;;;;;;;5051408;28;20054;-90
2024/01/27 03:41:55;;;;;;;7.72;2.10;;;;;;;;;;5040006;28;20056;-89
2024/01/27 03:44:22;;;;;;;13.88;2.50;;;;;;;;;;5032642;28;20057;-89
2024/01/27 03:46:51;;;;;;;9.65;2.22;;;;;;;;;;5033737;28;20075;-88
2024/01/27 03:49:18;;;;;;;11.52;2.42;;;;;;;;;;5033319;28;20095;-89
2024/01/27 03:51:45;;;;;;;13.18;2.80;;;;;;;;;;5034605;28;20136;-89
2024/01/27 03:54:13;;;;;;;5.68;2.10;;;;;;;;;;5030677;28;20050;-89
2024/01/27 03:56:41;;;;;;;11.57;2.30;;;;;;;;;;5033340;28;20557;-88
2024/01/27 03:59:10;;;;;;;10.13;2.33;;;;;;;;;;5033567;28;20454;-89
2024/01/27 04:01:38;;;;;;;10.35;2.53;;;;;;;;;;5034312;28;20057;-89
2024/01/27 04:04:05;;;;;;;17.55;4.85;;;;;;;;;;5033153;28;20052;-88
2024/01/27 04:06:37;;;;;;;11.77;2.95;;;;;;;;;;5025243;28;20050;-89
2024/01/27 04:09:08;;;;;;;13.18;2.90;;;;;;;;;;5033168;28;20107;-89
2024/01/27 04:11:36;;;;;;;14.75;3.75;;;;;;;;;;5025616;28;20144;-89
2024/01/27 04:14:04;;;;;;;10.82;4.00;;;;;;;;;;5033166;28;20061;-89
2024/01/27 04:16:32;;;;;;;10.50;2.80;;;;;;;;;;5033235;28;20049;-89
2024/01/27 04:18:59;;;;;;;10.40;2.50;;;;;;;;;;5029712;28;20050;-88
2024/01/27 04:21:27;;;;;;;9.63;2.58;;;;;;;;;;5048503;28;20132;-88
2024/01/27 04:23:54;;;;;;;12.98;2.53;;;;;;;;;;5032268;28;20061;-89
2024/01/27 04:26:21;;;;;;;12.05;2.92;;;;;;;;;;5033662;28;20045;-88
2024/01/27 04:28:49;;;;;;;7.45;2.03;;;;;;;;;;5033860;28;20049;-89
2024/01/27 04:31:16;;;;;;;10.77;2.05;;;;;;;;;;5032844;28;20049;-89
2024/01/27 04:33:43;;;;;;;8.45;2.03;;;;;;;;;;5032254;28;20091;-89
2024/01/27 04:36:11;;;;;;;16.80;2.40;;;;;;;;;;5033170;28;20049;-89
2024/01/27 04:38:38;;;;;;;8.88;2.15;;;;;;;;;;5034035;28;20049;-88
2024/01/27 04:41:05;;;;;;;10.15;2.47;;;;;;;;;;5033550;28;20041;-89
2024/01/27 04:43:34;;;;;;;10.30;1.70;;;;;;;;;;5021191;28;20071;-89
2024/01/27 04:46:01;;;;;;;12.55;1.80;;;;;;;;;;5029237;28;20497;-88
2024/01/27 04:48:29;;;;;;;10.60;2.00;;;;;;;;;;5032193;28;20053;-89
2024/01/27 04:50:56;;;;;;;7.13;2.35;;;;;;;;;;5033561;28;20053;-89
2024/01/27 04:53:23;;;;;;;11.35;2.03;;;;;;;;;;5051528;28;20049;-88
2024/01/27 04:55:51;;;;;;;16.40;2.08;;;;;;;;;;5035165;28;20063;-88
2024/01/27 04:58:18;;;;;;;11.65;2.00;;;;;;;;;;5032671;28;20085;-89
2024/01/27 05:00:46;;;;;;;8.88;1.92;;;;;;;;;;5032272;28;20099;-88
2024/01/27 05:03:13;;;;;;;8.60;2.00;;;;;;;;;;5032124;28;20042;-88
2024/01/27 05:05:42;;;;;;;15.85;2.60;;;;;;;;;;5032465;28;20059;-90
2024/01/27 05:08:10;;;;;;;13.15;2.80;;;;;;;;;;5032295;28;20049;-88
2024/01/27 05:10:37;;;;;;;9.00;2.40;;;;;;;;;;5032434;28;20099;-89
2024/01/27 05:13:05;;;;;;;14.27;2.72;;;;;;;;;;5033105;28;20065;-88
2024/01/27 05:15:32;;;;;;;11.15;3.00;;;;;;;;;;5023705;28;20103;-88
2024/01/27 05:17:59;;;;;;;12.23;2.83;;;;;;;;;;5032311;28;20111;-89
2024/01/27 05:20:27;;;;;;;15.60;3.00;;;;;;;;;;5033138;28;20099;-88
2024/01/27 05:22:54;;;;;;;16.27;3.67;;;;;;;;;;5032166;28;20650;-88
2024/01/27 05:25:21;;;;;;;8.82;2.45;;;;;;;;;;5032814;28;20057;-89
2024/01/27 05:27:48;;;;;;;10.52;2.83;;;;;;;;;;5032012;28;20469;-89
2024/01/27 05:30:17;;;;;;;11.20;2.45;;;;;;;;;;5031798;28;20465;-88
2024/01/27 05:32:44;;;;;;;8.25;2.38;;;;;;;;;;5032275;28;20413;-88
2024/01/27 05:35:12;;;;;;;5.32;2.97;;;;;;;;;;5032996;28;20053;-88
2024/01/27 05:37:39;;;;;;;10.07;3.13;;;;;;;;;;5036055;28;20053;-88
2024/01/27 05:40:08;;;;;;;11.07;2.92;;;;;;;;;;5035803;28;20052;-88
2024/01/27 05:42:35;;;;;;;12.10;2.85;;;;;;;;;;5027556;28;20158;-89
2024/01/27 05:45:02;;;;;;;9.73;2.65;;;;;;;;;;5035735;28;20132;-88
2024/01/27 05:47:30;;;;;;;11.48;2.10;;;;;;;;;;5035609;28;20049;-88
2024/01/27 05:49:57;;;;;;;14.80;2.80;;;;;;;;;;5036658;28;20052;-89
2024/01/27 05:52:25;;;;;;;11.30;2.13;;;;;;;;;;5036248;28;20059;-88
2024/01/27 05:54:53;;;;;;;9.63;2.10;;;;;;;;;;5033575;28;20489;-88
2024/01/27 05:57:20;;;;;;;9.27;2.10;;;;;;;;;;5036240;28;20042;-88
2024/01/27 05:59:48;;;;;;;12.43;2.72;;;;;;;;;;5035274;28;20501;-89
2024/01/27 06:02:17;;;;;;;11.50;2.65;;;;;;;;;;5036258;28;20053;-88
2024/01/27 06:04:45;;;;;;;11.25;2.70;;;;;;;;;;5035982;28;20092;-89
2024/01/27 06:07:12;;;;;;;7.88;2.30;;;;;;;;;;5049084;28;20048;-88
2024/01/27 06:09:40;;;;;;;11.27;2.90;;;;;;;;;;5044014;28;20095;-89
2024/01/27 06:12:08;;;;;;;16.92;3.33;;;;;;;;;;5036386;28;20068;-89
2024/01/27 06:14:35;;;;;;;16.85;3.28;;;;;;;;;;5034965;28;20049;-89
2024/01/27 06:17:06;;;;;;;13.68;4.40;;;;;;;;;;5035215;28;20456;-89
2024/01/27 06:19:33;;;;;;;15.85;4.38;;;;;;;;;;5027409;28;20103;-89
2024/01/27 06:22:00;;;;;;;18.40;4.20;;;;;;;;;;5036259;28;20132;-89
2024/01/27 06:24:32;;;;;;;17.17;4.68;;;;;;;;;;5027408;28;20107;-89
2024/01/27 06:26:59;;;;;;;18.35;5.05;;;;;;;;;;5034704;28;20045;-89
2024/01/27 06:29:29;;;;;;;16.52;4.28;;;;;;;;;;5035272;28;20097;-89
2024/01/27 06:31:56;;;;;;;12.93;3.58;;;;;;;;;;5034970;28;20076;-89
2024/01/27 06:34:24;;;;;;;18.45;3.65;;;;;;;;;;5034506;28;20073;-89
2024/01/27 06:36:51;;;;;;;10.40;2.95;;;;;;;;;;5035593;28;20053;-89
2024/01/27 06:39:18;;;;;;;14.25;3.50;;;;;;;;;;5035113;28;20524;-89
2024/01/27 06:41:45;;;;;;;8.82;3.03;;;;;;;;;;5034648;28;20099;-89
2024/01/27 06:44:12;;;;;;;9.77;3.10;;;;;;;;;;5031741;28;20046;-88
2024/01/27 06:46:40;;;;;;;12.77;3.35;;;;;;;;;;5034492;28;20493;-90
2024/01/27 06:49:07;;;;;;;14.27;3.88;;;;;;;;;;5034111;28;20088;-90
2024/01/27 06:51:35;;;;;;;11.90;3.55;;;;;;;;;;5034722;28;20405;-89
2024/01/27 06:54:02;;;;;;;15.93;3.15;;;;;;;;;;5036009;28;20054;-88
2024/01/27 06:56:30;;;;;;;21.17;4.63;;;;;;;;;;5034871;28;20461;-90
2024/01/27 06:58:57;;;;;;;15.57;4.45;;;;;;;;;;5034831;28;20486;-90
2024/01/27 07:01:25;;;;;;;28.73;7.97;;;;;;;;;;5035483;28;20119;-90
2024/01/27 07:03:52;;;;;;;20.00;6.30;;;;;;;;;;5034513;28;20095;-89
2024/01/27 07:06:19;;;;;;;17.00;4.85;;;;;;;;;;5034264;28;20480;-90
2024/01/27 07:08:47;;;;;;;18.17;4.00;;;;;;;;;;5034120;28;20585;-90
2024/01/27 07:11:14;;;;;;;9.52;3.70;;;;;;;;;;5032430;28;20073;-90
2024/01/27 07:13:44;;;;;;;16.63;4.03;;;;;;;;;;5034723;28;20042;-90
2024/01/27 07:16:12;;;;;;;14.35;3.95;;;;;;;;;;5034326;28;20406;-89
2024/01/27 07:18:39;;;;;;;15.48;4.38;;;;;;;;;;5034780;28;20077;-90
2024/01/27 07:21:06;;;;;;;16.90;7.68;;;;;;;;;;5040234;28;20057;-90
2024/01/27 07:23:35;;;;;;;15.57;4.97;;;;;;;;;;5046512;28;20068;-90
2024/01/27 07:26:03;;;;;;;14.95;4.00;;;;;;;;;;5037431;28;20548;-90
2024/01/27 07:28:31;;;;;;;21.42;5.97;;;;;;;;;;5034172;28;20045;-90
2024/01/27 07:30:58;;;;;;;9.73;3.25;;;;;;;;;;5036177;28;20049;-90
2024/01/27 07:33:26;;;;;;;16.95;3.85;;;;;;;;;;5033256;28;20081;-90
2024/01/27 07:35:53;;;;;;;15.10;3.67;;;;;;;;;;5030391;28;20070;-90
2024/01/27 07:38:21;;;;;;;27.95;5.15;;;;;;;;;;5047348;28;20041;-90
2024/01/27 07:40:48;;;;;;;12.55;4.03;;;;;;;;;;5033982;28;20049;-90
2024/01/27 07:43:15;;;;;;;15.55;5.78;;;;;;;;;;5034624;28;20049;-91
2024/01/27 07:45:44;;;;;;;16.00;6.95;;;;;;;;;;5034436;28;20091;-90
2024/01/27 07:48:12;;;;;;;11.57;4.80;;;;;;;;;;5032710;28;20046;-89
2024/01/27 07:50:39;;;;;;;14.85;4.68;;;;;;;;;;5029845;28;20050;-90
2024/01/27 07:53:07;;;;;;;15.70;5.47;;;;;;;;;;5030975;28;20053;-91
2024/01/27 07:55:35;;;;;;;15.27;5.70;;;;;;;;;;5025690;28;20084;-91
2024/01/27 07:58:02;;;;;;;17.25;5.57;;;;;;;;;;5033528;28;20099;-90
2024/01/27 08:00:31;;;;;;;14.60;5.18;;;;;;;;;;5032697;28;20053;-91
2024/01/27 08:02:58;;;;;;;24.10;6.40;;;;;;;;;;5033130;28;20057;-91
2024/01/27 08:05:26;;;;;;;16.92;6.63;;;;;;;;;;5033314;28;20088;-90
2024/01/27 08:07:53;;;;;;;18.95;6.50;;;;;;;;;;5033702;28;20077;-91
2024/01/27 08:10:20;;;;;;;17.23;6.35;;;;;;;;;;5034331;28;20417;-91
2024/01/27 08:12:48;;;;;;;13.95;6.28;;;;;;;;;;5033116;28;20046;-91
2024/01/27 08:15:15;;;;;;;16.08;5.57;;;;;;;;;;5033077;28;20049;-91
2024/01/27 08:17:42;;;;;;;18.45;6.30;;;;;;;;;;5033204;28;20056;-91
2024/01/27 08:20:10;;;;;;;20.95;5.30;;;;;;;;;;5034368;28;20554;-90
2024/01/27 08:22:37;;;;;;;20.83;6.28;;;;;;;;;;5036302;28;20413;-91
2024/01/27 08:25:05;;;;;;;17.45;6.60;;;;;;;;;;5033005;28;20167;-91
2024/01/27 08:27:32;;;;;;;18.88;5.85;;;;;;;;;;5029669;28;20096;-91
2024/01/27 08:29:59;;;;;;;20.60;5.75;;;;;;;;;;5029446;28;20046;-91
2024/01/27 08:32:27;;;;;;;19.10;7.80;;;;;;;;;;5033119;28;20108;-91
2024/01/27 08:34:54;;;;;;;19.15;6.22;;;;;;;;;;5035368;28;20443;-91
2024/01/27 08:37:21;;;;;;;12.90;6.40;;;;;;;;;;5054546;28;20145;-91
2024/01/27 08:39:51;;;;;;;11.32;5.47;;;;;;;;;;5037088;28;20119;-91
2024/01/27 08:42:18;;;;;;;18.02;6.38;;;;;;;;;;5034009;28;20394;-91
2024/01/27 08:44:45;;;;;;;15.05;6.25;;;;;;;;;;5033932;28;20046;-91
2024/01/27 08:47:12;;;;;;;31.02;12.88;;;;;;;;;;5033633;28;20488;-91
2024/01/27 08:49:41;;;;;;;25.60;9.73;;;;;;;;;;5032584;28;20096;-91
2024/01/27 08:52:08;;;;;;;44.17;18.63;;;;;;;;;;5032245;28;20065;-91
2024/01/27 08:54:36;;;;;;;23.48;11.98;;;;;;;;;;5035275;28;20387;-91
2024/01/27 08:57:03;;;;;;;44.25;18.80;;;;;;;;;;5032975;28;20504;-91
2024/01/27 08:59:31;;;;;;;30.50;12.25;;;;;;;;;;5032847;28;20049;-90
2024/01/27 09:01:58;;;;;;;27.60;12.95;;;;;;;;;;5033370;28;20137;-91
2024/01/27 09:04:25;;;;;;;20.30;9.25;;;;;;;;;;5033315;28;20080;-91
2024/01/27 09:06:52;;;;;;;17.23;9.02;;;;;;;;;;5032505;28;20069;-91
2024/01/27 09:09:20;;;;;;;13.88;6.60;;;;;;;;;;5032332;28;20073;-91
2024/01/27 09:11:48;;;;;;;21.63;6.65;;;;;;;;;;5035683;28;20049;-91
2024/01/27 09:14:15;;;;;;;15.07;6.30;;;;;;;;;;5037598;28;20060;-91
2024/01/27 09:16:42;;;;;;;21.85;6.47;;;;;;;;;;5037513;28;20087;-91
2024/01/27 09:19:10;;;;;;;15.15;6.35;;;;;;;;;;5036042;28;20075;-91
2024/01/27 09:21:38;;;;;;;22.15;6.25;;;;;;;;;;5036656;28;20205;-91
2024/01/27 09:24:05;;;;;;;12.60;6.15;;;;;;;;;;5036108;28;20052;-90
2024/01/27 09:26:32;;;;;;;19.33;6.43;;;;;;;;;;5028321;28;20061;-91
2024/01/27 09:28:59;;;;;;;18.80;6.07;;;;;;;;;;5036911;28;20077;-90
2024/01/27 09:31:28;;;;;;;20.30;6.88;;;;;;;;;;5037433;28;20049;-90
2024/01/27 09:33:55;;;;;;;21.15;7.13;;;;;;;;;;5036016;28;20045;-91
2024/01/27 09:36:23;;;;;;;22.90;6.20;;;;;;;;;;5035987;28;20049;-91
2024/01/27 09:38:52;;;;;;;21.75;5.82;;;;;;;;;;5036492;28;20042;-90
2024/01/27 09:41:19;;;;;;;21.58;6.95;;;;;;;;;;5034703;28;20078;-90
2024/01/27 09:43:50;;;;;;;17.02;7.53;;;;;;;;;;5036586;28;20104;-91
2024/01/27 09:46:18;;;;;;;22.83;7.32;;;;;;;;;;5037642;28;20076;-91
2024/01/27 09:48:45;;;;;;;20.42;8.02;;;;;;;;;;5039103;28;20049;-90
2024/01/27 09:51:13;;;;;;;25.02;10.38;;;;;;;;;;5057223;28;20064;-90
2024/01/27 09:53:40;;;;;;;22.98;6.38;;;;;;;;;;5040282;28;20057;-90
2024/01/27 09:56:08;;;;;;;31.38;8.77;;;;;;;;;;5035308;28;20084;-90
2024/01/27 09:58:35;;;;;;;25.83;9.07;;;;;;;;;;5036025;28;20041;-90
2024/01/27 10:01:03;;;;;;;21.30;9.10;;;;;;;;;;5035840;28;20107;-90
2024/01/27 10:03:31;;;;;;;21.70;6.97;;;;;;;;;;5035972;28;20042;-90
2024/01/27 10:05:58;;;;;;;25.67;5.40;;;;;;;;;;5036216;28;20088;-90
2024/01/27 10:08:26;;;;;;;16.80;4.30;;;;;;;;;;5036625;28;20046;-89
2024/01/27 10:10:56;;;;;;;17.27;3.58;;;;;;;;;;5035457;28;20053;-89
2024/01/27 10:13:27;;;;;;;9.80;2.17;;;;;;;;;;5035129;28;20049;-87
2024/01/27 10:16:04;;;;;;;9.38;2.22;;;;;;;;;;5035136;28;20045;-86
2024/01/27 10:18:31;;;;;;;14.27;5.72;;;;;;;;;;5035162;28;20083;-86
2024/01/27 10:20:59;;;;;;;17.48;7.82;;;;;;;;;;5031669;28;20552;-86
2024/01/27 10:23:27;;;;;;;9.52;1.98;;;;;;;;;;5048851;28;20053;-87
2024/01/27 10:25:54;;;;;;;8.98;2.20;;;;;;;;;;5035839;28;20387;-86
2024/01/27 10:28:24;;;;;;;9.00;1.45;;;;;;;;;;5035889;28;20050;-85
2024/01/27 10:30:52;;;;;;;6.63;1.83;;;;;;;;;;5034592;28;20050;-87
2024/01/27 10:33:19;;;;;;;8.35;1.80;;;;;;;;;;5034759;28;20489;-85
2024/01/27 10:35:47;;;;;;;5.18;1.67;;;;;;;;;;5035704;28;20050;-86
2024/01/27 10:38:14;;;;;;;7.80;1.95;;;;;;;;;;5034572;28;20049;-87
2024/01/27 10:40:41;;;;;;;12.15;2.25;;;;;;;;;;5034504;28;20045;-85
2024/01/27 10:43:09;;;;;;;10.10;1.75;;;;;;;;;;5035094;28;20060;-85
2024/01/27 10:45:41;;;;;;;6.55;1.70;;;;;;;;;;5030947;28;20049;-87
2024/01/27 10:48:12;;;;;;;8.38;1.98;;;;;;;;;;5044031;28;20112;-88
2024/01/27 10:50:40;;;;;;;7.47;1.98;;;;;;;;;;5031541;28;20118;-87
2024/01/27 10:53:24;;;;;;;10.50;1.52;;;;;;;;;;5046929;28;20041;-88
2024/01/27 10:55:57;;;;;;;9.57;1.67;;;;;;;;;;5029594;28;20049;-86
2024/01/27 10:58:25;;;;;;;11.65;2.05;;;;;;;;;;5034632;28;20041;-88
2024/01/27 11:00:53;;;;;;;10.30;1.60;;;;;;;;;;5035517;28;20052;-87
2024/01/27 11:03:21;;;;;;;8.60;2.22;;;;;;;;;;5047571;28;20064;-88
2024/01/27 11:05:50;;;;;;;5.75;1.63;;;;;;;;;;5039573;28;20081;-86
2024/01/27 11:08:19;;;;;;;8.57;2.05;;;;;;;;;;5033938;28;20053;-88
2024/01/27 11:10:46;;;;;;;7.13;1.60;;;;;;;;;;5031015;28;20486;-86
2024/01/27 11:13:14;;;;;;;6.95;1.40;;;;;;;;;;5032510;28;20540;-86
2024/01/27 11:15:51;;;;;;;9.18;1.42;;;;;;;;;;5034924;28;20103;-86
2024/01/27 11:18:18;;;;;;;5.18;1.30;;;;;;;;;;5033558;28;20049;-86
2024/01/27 11:20:45;;;;;;;5.95;1.45;;;;;;;;;;5035786;28;20045;-86
2024/01/27 11:23:16;;;;;;;6.28;1.30;;;;;;;;;;5034127;28;20070;-86
2024/01/27 11:25:43;;;;;;;4.70;1.75;;;;;;;;;;5034027;28;20049;-86
2024/01/27 11:28:13;;;;;;;8.18;1.70;;;;;;;;;;5034680;28;20053;-86
2024/01/27 11:30:40;;;;;;;9.52;2.38;;;;;;;;;;5033553;28;20046;-86
2024/01/27 11:33:08;;;;;;;7.15;2.20;;;;;;;;;;5033317;28;20413;-86
2024/01/27 11:35:36;;;;;;;4.80;1.20;;;;;;;;;;5033503;28;20137;-86
2024/01/27 11:38:03;;;;;;;8.05;1.95;;;;;;;;;;5034862;28;20060;-86
2024/01/27 11:40:31;;;;;;;6.32;1.30;;;;;;;;;;5033462;28;20084;-86
2024/01/27 11:42:59;;;;;;;6.78;1.65;;;;;;;;;;5033049;28;20054;-85
2024/01/27 11:45:30;;;;;;;5.18;1.55;;;;;;;;;;5033343;28;20407;-86
2024/01/27 11:47:57;;;;;;;7.57;1.73;;;;;;;;;;5033131;28;20137;-85
2024/01/27 11:50:25;;;;;;;6.15;1.73;;;;;;;;;;5033519;28;20409;-85
2024/01/27 11:52:52;;;;;;;7.57;1.80;;;;;;;;;;5033225;28;20560;-85
2024/01/27 11:55:19;;;;;;;6.05;1.52;;;;;;;;;;5034040;28;20072;-85
2024/01/27 11:57:47;;;;;;;6.75;1.73;;;;;;;;;;5033118;28;20049;-86
2024/01/27 12:00:14;;;;;;;6.90;1.40;;;;;;;;;;5032839;28;20481;-85
2024/01/27 12:02:41;;;;;;;5.32;1.27;;;;;;;;;;5033858;28;20071;-85
2024/01/27 12:05:09;;;;;;;6.00;1.45;;;;;;;;;;5033705;28;20107;-85
2024/01/27 12:07:37;;;;;;;8.50;1.95;;;;;;;;;;5032908;28;20099;-88
2024/01/27 12:10:04;;;;;;;6.45;1.60;;;;;;;;;;5033213;28;20103;-87
2024/01/27 12:12:32;;;;;;;4.85;1.60;;;;;;;;;;5032804;28;20050;-87
2024/01/27 12:15:02;;;;;;;8.43;1.50;;;;;;;;;;5032841;28;20132;-85
2024/01/27 12:17:29;;;;;;;7.78;1.60;;;;;;;;;;5049560;28;20071;-85
2024/01/27 12:19:57;;;;;;;7.55;1.58;;;;;;;;;;5033090;28;20133;-86
2024/01/27 12:22:28;;;;;;;5.43;1.80;;;;;;;;;;5032680;28;20068;-86
2024/01/27 12:24:56;;;;;;;4.00;1.33;;;;;;;;;;5034079;28;20387;-86
2024/01/27 12:27:24;;;;;;;11.02;1.42;;;;;;;;;;5032270;28;20220;-85
2024/01/27 12:29:51;;;;;;;6.20;1.45;;;;;;;;;;5032427;28;20486;-86
2024/01/27 12:32:19;;;;;;;5.10;1.58;;;;;;;;;;5033694;28;20061;-86
2024/01/27 12:34:47;;;;;;;5.78;1.40;;;;;;;;;;5032668;28;20073;-86
2024/01/27 12:37:15;;;;;;;6.93;1.48;;;;;;;;;;5032762;28;20099;-85
2024/01/27 12:39:45;;;;;;;6.22;1.58;;;;;;;;;;5033429;28;20114;-86
2024/01/27 12:42:13;;;;;;;7.03;1.83;;;;;;;;;;5032269;28;20057;-84
2024/01/27 12:44:40;;;;;;;8.15;1.98;;;;;;;;;;5032325;28;20124;-85
2024/01/27 12:47:08;;;;;;;5.13;1.25;;;;;;;;;;5032832;28;20049;-85
2024/01/27 12:49:35;;;;;;;6.60;1.35;;;;;;;;;;5032315;28;20494;-86
2024/01/27 12:52:03;;;;;;;6.40;1.80;;;;;;;;;;5033236;28;20049;-86
2024/01/27 12:54:31;;;;;;;5.30;1.40;;;;;;;;;;5031880;28;20123;-85
2024/01/27 12:56:59;;;;;;;3.63;1.40;;;;;;;;;;5032093;28;20049;-86
2024/01/27 12:59:27;;;;;;;6.28;1.88;;;;;;;;;;5032183;28;20049;-86
2024/01/27 13:01:54;;;;;;;4.35;1.20;;;;;;;;;;5032044;28;20544;-85
2024/01/27 13:04:22;;;;;;;5.32;1.48;;;;;;;;;;5032143;28;20057;-86
2024/01/27 13:06:51;;;;;;;5.22;1.52;;;;;;;;;;5032055;28;20395;-86
2024/01/27 13:09:18;;;;;;;7.32;1.63;;;;;;;;;;5033076;28;20057;-85
2024/01/27 13:11:47;;;;;;;5.10;1.42;;;;;;;;;;5028798;28;20549;-85
2024/01/27 13:14:16;;;;;;;4.22;1.30;;;;;;;;;;5043583;28;20133;-85
2024/01/27 13:16:43;;;;;;;4.20;1.40;;;;;;;;;;5032975;28;20053;-85
2024/01/27 13:19:10;;;;;;;6.63;1.50;;;;;;;;;;5031889;28;20127;-86
2024/01/27 13:21:39;;;;;;;3.50;1.30;;;;;;;;;;5032006;28;20053;-86
2024/01/27 13:24:08;;;;;;;5.38;1.33;;;;;;;;;;5028471;28;20046;-85
2024/01/27 13:26:38;;;;;;;4.15;1.33;;;;;;;;;;5017089;28;20049;-86
2024/01/27 13:29:06;;;;;;;5.07;1.27;;;;;;;;;;5032942;28;20050;-85
2024/01/27 13:31:33;;;;;;;12.43;2.03;;;;;;;;;;5038821;28;20049;-85
2024/01/27 13:34:01;;;;;;;6.55;1.38;;;;;;;;;;5032338;28;20049;-85
2024/01/27 13:36:29;;;;;;;6.20;1.52;;;;;;;;;;5032667;28;20111;-85
2024/01/27 13:38:57;;;;;;;4.82;2.03;;;;;;;;;;5032799;28;20424;-85
2024/01/27 13:41:25;;;;;;;5.35;1.10;;;;;;;;;;5032295;28;20050;-85
2024/01/27 13:43:53;;;;;;;8.85;1.50;;;;;;;;;;5032468;28;20042;-85
2024/01/27 13:46:20;;;;;;;1.92;0.80;;;;;;;;;;5031965;28;20050;-86
2024/01/27 13:48:50;;;;;;;7.97;2.85;;;;;;;;;;5027535;28;20091;-85
2024/01/27 13:51:18;;;;;;;7.07;1.95;;;;;;;;;;5030541;28;20124;-84
2024/01/27 13:53:45;;;;;;;7.30;1.88;;;;;;;;;;5031479;28;20045;-85
2024/01/27 13:56:14;;;;;;;4.80;1.35;;;;;;;;;;5032709;28;20577;-85
2024/01/27 13:58:42;;;;;;;4.78;1.60;;;;;;;;;;5036102;28;20049;-85
2024/01/27 14:01:10;;;;;;;6.35;2.08;;;;;;;;;;5031592;28;20064;-84
2024/01/27 14:03:37;;;;;;;4.93;1.77;;;;;;;;;;5035246;28;20052;-84
2024/01/27 14:06:05;;;;;;;6.38;1.52;;;;;;;;;;5034711;28;20057;-85
2024/01/27 14:08:33;;;;;;;7.47;1.55;;;;;;;;;;5027035;28;20500;-85
2024/01/27 14:11:00;;;;;;;9.10;1.75;;;;;;;;;;5035170;28;20057;-85
2024/01/27 14:13:28;;;;;;;9.45;2.17;;;;;;;;;;5035139;28;20477;-85
2024/01/27 14:15:55;;;;;;;6.03;1.80;;;;;;;;;;5031249;28;20054;-85
2024/01/27 14:18:22;;;;;;;8.77;1.52;;;;;;;;;;5048643;28;20065;-85
2024/01/27 14:20:50;;;;;;;7.07;1.55;;;;;;;;;;5034892;28;20091;-86
2024/01/27 14:23:18;;;;;;;7.63;2.05;;;;;;;;;;5032638;28;20108;-85
2024/01/27 14:25:45;;;;;;;6.03;1.73;;;;;;;;;;5031111;28;20056;-84
2024/01/27 14:28:14;;;;;;;7.95;2.05;;;;;;;;;;5032820;28;20456;-86
2024/01/27 14:30:43;;;;;;;7.38;1.83;;;;;;;;;;5035830;28;20410;-86
2024/01/27 14:33:20;;;;;;;11.30;2.05;;;;;;;;;;5034243;28;20424;-86
2024/01/27 14:35:48;;;;;;;6.55;1.80;;;;;;;;;;5034634;28;20045;-87
2024/01/27 14:38:15;;;;;;;5.85;1.98;;;;;;;;;;5034353;28;20548;-86